createdAt,value
2022-11-13T00:01:25.531Z,7.62
2022-11-13T00:03:53.977Z,7.62
2022-11-13T00:06:23.908Z,7.58
2022-11-13T00:08:55.917Z,7.56
2022-11-13T00:11:24.278Z,7.56
2022-11-13T00:13:52.602Z,7.55
2022-11-13T00:16:22.985Z,7.53
2022-11-13T00:18:51.370Z,7.52
2022-11-13T00:21:23.274Z,7.51
2022-11-13T00:23:53.180Z,7.49
2022-11-13T00:26:24.001Z,7.46
2022-11-13T00:28:55.530Z,7.44
2022-11-13T00:31:24.371Z,7.46
2022-11-13T00:36:41.655Z,7.43
2022-11-13T00:39:12.003Z,7.42
2022-11-13T00:41:40.456Z,7.42
2022-11-13T00:44:09.040Z,7.42
2022-11-13T00:46:37.345Z,7.40
2022-11-13T00:49:05.951Z,7.38
2022-11-13T00:51:34.431Z,7.37
2022-11-13T00:54:02.701Z,7.35
2022-11-13T00:56:32.460Z,7.30
2022-11-13T00:59:00.783Z,7.27
2022-11-13T01:01:29.202Z,7.24
2022-11-13T01:03:57.905Z,7.23
2022-11-13T01:06:28.156Z,7.20
2022-11-13T01:08:59.698Z,7.18
2022-11-13T01:11:31.840Z,7.15
2022-11-13T01:14:00.223Z,7.12
2022-11-13T01:16:29.886Z,7.11
2022-11-13T01:18:58.666Z,7.13
2022-11-13T01:21:28.631Z,7.12
2022-11-13T01:23:57.097Z,7.11
2022-11-13T01:26:27.733Z,7.10
2022-11-13T01:28:59.648Z,7.09
2022-11-13T01:31:31.147Z,7.09
2022-11-13T01:34:00.225Z,7.08
2022-11-13T01:36:30.634Z,7.08
2022-11-13T01:38:59.595Z,7.07
2022-11-13T01:41:32.195Z,7.06
2022-11-13T01:44:02.682Z,7.05
2022-11-13T01:46:34.294Z,7.06
2022-11-13T01:49:28.930Z,7.05
2022-11-13T01:52:00.689Z,7.05
2022-11-13T01:54:34.829Z,7.04
2022-11-13T01:57:05.215Z,7.05
2022-11-13T01:59:39.741Z,7.01
2022-11-13T02:02:08.963Z,7.04
2022-11-13T02:04:37.868Z,7.02
2022-11-13T02:07:11.378Z,7.00
2022-11-13T02:09:42.625Z,6.99
2022-11-13T02:12:14.697Z,6.97
2022-11-13T02:14:47.708Z,6.95
2022-11-13T02:17:20.989Z,6.95
2022-11-13T02:19:54.055Z,6.94
2022-11-13T02:22:30.355Z,6.91
2022-11-13T02:25:01.390Z,6.89
2022-11-13T02:27:35.596Z,6.85
2022-11-13T02:30:16.477Z,6.80
2022-11-13T02:32:46.399Z,6.73
2022-11-13T02:35:17.269Z,6.70
2022-11-13T02:37:45.512Z,6.65
2022-11-13T02:40:15.589Z,6.64
2022-11-13T02:42:43.994Z,6.62
2022-11-13T02:45:12.477Z,6.60
2022-11-13T02:47:40.796Z,6.59
2022-11-13T02:50:10.942Z,6.55
2022-11-13T02:52:39.296Z,6.53
2022-11-13T02:55:08.898Z,6.50
2022-11-13T02:57:38.490Z,6.47
2022-11-13T03:00:13.544Z,6.42
2022-11-13T03:02:42.489Z,6.41
2022-11-13T03:05:13.231Z,6.40
2022-11-13T03:07:42.670Z,6.37
2022-11-13T03:10:12.381Z,6.34
2022-11-13T03:12:42.436Z,6.33
2022-11-13T03:15:11.992Z,6.32
2022-11-13T03:17:40.276Z,6.31
2022-11-13T03:20:09.558Z,6.27
2022-11-13T03:22:37.788Z,6.26
2022-11-13T03:25:10.697Z,6.22
2022-11-13T03:27:40.808Z,6.22
2022-11-13T03:30:11.293Z,6.19
2022-11-13T03:32:39.612Z,6.18
2022-11-13T03:35:09.016Z,6.20
2022-11-13T03:37:37.316Z,6.20
2022-11-13T03:40:06.856Z,6.21
2022-11-13T03:42:35.331Z,6.20
2022-11-13T03:47:33.398Z,6.15
2022-11-13T03:50:01.622Z,6.12
2022-11-13T03:52:29.893Z,6.09
2022-11-13T03:54:58.157Z,6.07
2022-11-13T03:57:26.432Z,6.03
2022-11-13T03:59:54.717Z,5.99
2022-11-13T04:02:22.956Z,5.99
2022-11-13T04:04:52.582Z,5.97
2022-11-13T04:07:21.001Z,5.97
2022-11-13T04:09:49.241Z,5.96
2022-11-13T04:12:17.507Z,5.96
2022-11-13T04:14:45.773Z,5.94
2022-11-13T04:17:14.046Z,5.93
2022-11-13T04:19:42.297Z,5.94
2022-11-13T04:22:11.944Z,5.93
2022-11-13T04:24:40.209Z,5.92
2022-11-13T04:27:08.502Z,5.92
2022-11-13T04:29:36.720Z,5.93
2022-11-13T04:32:05.255Z,5.89
2022-11-13T04:34:33.572Z,5.86
2022-11-13T04:37:02.085Z,5.84
2022-11-13T04:39:32.066Z,5.83
2022-11-13T04:42:17.972Z,5.80
2022-11-13T04:44:46.258Z,5.74
2022-11-13T04:47:15.089Z,5.72
2022-11-13T04:49:43.497Z,5.69
2022-11-13T04:52:11.747Z,5.66
2022-11-13T04:54:42.150Z,5.61
2022-11-13T04:57:10.468Z,5.60
2022-11-13T04:59:38.728Z,5.56
2022-11-13T05:02:07.053Z,5.55
2022-11-13T05:04:35.378Z,5.54
2022-11-13T05:07:03.786Z,5.50
2022-11-13T05:09:32.075Z,5.51
2022-11-13T05:12:01.695Z,5.49
2022-11-13T05:14:29.921Z,5.47
2022-11-13T05:16:58.653Z,5.47
2022-11-13T05:19:26.905Z,5.45
2022-11-13T05:21:55.187Z,5.45
2022-11-13T05:24:23.462Z,5.44
2022-11-13T05:26:52.178Z,5.43
2022-11-13T05:29:22.059Z,5.43
2022-11-13T05:31:50.387Z,5.41
2022-11-13T05:34:18.765Z,5.42
2022-11-13T05:36:47.026Z,5.42
2022-11-13T05:39:15.455Z,5.41
2022-11-13T05:41:43.757Z,5.42
2022-11-13T05:44:12.248Z,5.42
2022-11-13T05:46:41.961Z,5.44
2022-11-13T05:49:11.825Z,5.45
2022-11-13T05:51:40.133Z,5.44
2022-11-13T05:54:08.480Z,5.45
2022-11-13T05:56:38.004Z,5.47
2022-11-13T05:59:07.161Z,5.47
2022-11-13T06:01:38.308Z,5.46
2022-11-13T06:04:09.367Z,5.50
2022-11-13T06:06:37.763Z,5.51
2022-11-13T06:09:07.284Z,5.53
2022-11-13T06:11:35.573Z,5.51
2022-11-13T06:14:03.860Z,5.55
2022-11-13T06:16:36.745Z,5.58
2022-11-13T06:19:09.307Z,5.60
2022-11-13T06:21:40.490Z,5.62
2022-11-13T06:24:11.175Z,5.64
2022-11-13T06:26:39.750Z,5.67
2022-11-13T06:29:12.553Z,5.68
2022-11-13T06:31:41.218Z,5.72
2022-11-13T06:34:10.899Z,5.73
2022-11-13T06:36:39.236Z,5.75
2022-11-13T06:39:08.948Z,5.77
2022-11-13T06:41:39.755Z,5.79
2022-11-13T06:44:08.106Z,5.80
2022-11-13T06:46:36.303Z,5.83
2022-11-13T06:49:04.638Z,5.84
2022-11-13T06:51:34.349Z,5.86
2022-11-13T06:54:02.649Z,5.87
2022-11-13T06:56:30.965Z,5.90
2022-11-13T06:58:59.207Z,5.90
2022-11-13T07:01:28.513Z,5.93
2022-11-13T07:03:57.334Z,5.95
2022-11-13T07:06:26.527Z,5.96
2022-11-13T07:08:56.189Z,5.98
2022-11-13T07:11:25.236Z,5.99
2022-11-13T07:13:53.768Z,5.98
2022-11-13T07:16:22.046Z,5.99
2022-11-13T07:18:54.583Z,6.00
2022-11-13T07:21:23.962Z,6.03
2022-11-13T07:23:52.521Z,6.04
2022-11-13T07:26:22.209Z,6.06
2022-11-13T07:28:51.345Z,6.06
2022-11-13T07:31:20.829Z,6.06
2022-11-13T07:33:51.493Z,6.11
2022-11-13T07:36:20.132Z,6.13
2022-11-13T07:38:48.421Z,6.13
2022-11-13T07:41:16.726Z,6.21
2022-11-13T07:43:46.492Z,6.19
2022-11-13T07:46:14.798Z,6.27
2022-11-13T07:48:43.137Z,6.30
2022-11-13T07:51:11.500Z,6.32
2022-11-13T07:53:40.076Z,6.32
2022-11-13T07:56:09.319Z,6.33
2022-11-13T07:58:37.739Z,6.34
2022-11-13T08:01:08.140Z,6.36
2022-11-13T08:03:37.257Z,6.37
2022-11-13T08:06:08.230Z,6.39
2022-11-13T08:08:37.104Z,6.36
2022-11-13T08:11:06.857Z,6.37
2022-11-13T08:13:35.537Z,6.38
2022-11-13T08:16:06.338Z,6.38
2022-11-13T08:18:34.947Z,6.40
2022-11-13T08:21:07.108Z,6.42
2022-11-13T08:23:38.810Z,6.44
2022-11-13T08:26:08.011Z,6.46
2022-11-13T08:28:37.532Z,6.51
2022-11-13T08:31:12.420Z,6.52
2022-11-13T08:33:41.001Z,6.56
2022-11-13T08:36:10.918Z,6.57
2022-11-13T08:38:39.336Z,6.60
2022-11-13T08:41:09.672Z,6.63
2022-11-13T08:43:38.257Z,6.68
2022-11-13T08:46:08.420Z,6.69
2022-11-13T08:48:37.737Z,6.72
2022-11-13T08:51:06.534Z,6.73
2022-11-13T08:53:34.792Z,6.76
2022-11-13T08:56:03.148Z,6.77
2022-11-13T08:58:31.832Z,6.79
2022-11-13T09:01:04.653Z,6.79
2022-11-13T09:03:36.227Z,6.81
2022-11-13T09:06:07.548Z,6.82
2022-11-13T09:08:36.322Z,6.86
2022-11-13T09:11:06.221Z,6.88
2022-11-13T09:13:41.162Z,6.92
2022-11-13T09:16:12.242Z,6.98
2022-11-13T09:18:41.970Z,6.99
2022-11-13T09:21:11.106Z,7.04
2022-11-13T09:23:39.439Z,7.07
2022-11-13T09:26:07.712Z,7.10
2022-11-13T09:28:36.669Z,7.11
2022-11-13T09:31:06.401Z,7.12
2022-11-13T09:33:34.918Z,7.15
2022-11-13T09:36:11.653Z,7.16
2022-11-13T09:38:40.017Z,7.20
2022-11-13T09:41:12.175Z,7.24
2022-11-13T09:43:44.965Z,7.25
2022-11-13T09:46:22.006Z,7.25
2022-11-13T09:48:55.613Z,7.28
2022-11-13T09:51:29.600Z,7.32
2022-11-13T09:53:59.098Z,7.34
2022-11-13T09:56:33.451Z,7.36
2022-11-13T09:59:09.191Z,7.40
2022-11-13T10:01:50.620Z,7.44
2022-11-13T10:04:27.799Z,7.50
2022-11-13T10:07:15.540Z,7.51
2022-11-13T10:09:58.583Z,7.55
2022-11-13T10:12:29.511Z,7.61
2022-11-13T10:15:02.816Z,7.65
2022-11-13T10:17:39.333Z,7.67
2022-11-13T10:20:15.340Z,7.72
2022-11-13T10:22:51.982Z,7.75
2022-11-13T10:25:23.213Z,7.79
2022-11-13T10:27:57.778Z,7.86
2022-11-13T10:30:26.672Z,7.94
2022-11-13T10:32:54.989Z,8.04
2022-11-13T10:35:45.992Z,8.12
2022-11-13T10:38:26.452Z,8.21
2022-11-13T10:41:05.634Z,8.25
2022-11-13T10:43:34.866Z,8.32
2022-11-13T10:46:06.382Z,8.40
2022-11-13T10:48:37.234Z,8.48
2022-11-13T10:51:25.327Z,8.57
2022-11-13T10:53:55.635Z,8.65
2022-11-13T10:56:29.798Z,8.74
2022-11-13T10:59:03.993Z,8.82
2022-11-13T11:01:32.590Z,8.89
2022-11-13T11:04:00.850Z,8.96
2022-11-13T11:07:12.705Z,9.05
2022-11-13T11:09:29.880Z,9.17
2022-11-13T11:12:17.213Z,9.28
2022-11-13T11:15:12.570Z,9.40
2022-11-13T11:17:48.130Z,9.49
2022-11-13T11:20:27.056Z,9.60
2022-11-13T11:23:03.655Z,9.68
2022-11-13T11:25:41.772Z,9.82
2022-11-13T11:28:24.647Z,9.97
2022-11-13T11:31:00.972Z,10.11
2022-11-13T11:33:35.479Z,10.24
2022-11-13T11:36:16.092Z,10.38
2022-11-13T11:38:52.381Z,10.49
2022-11-13T11:41:35.481Z,10.61
2022-11-13T11:44:15.149Z,10.70
2022-11-13T11:46:46.691Z,10.79
2022-11-13T11:49:15.362Z,10.88
2022-11-13T11:51:57.772Z,10.97
2022-11-13T11:54:42.172Z,11.04
2022-11-13T11:57:29.778Z,11.11
2022-11-13T12:00:07.429Z,11.18
2022-11-13T12:02:59.431Z,11.26
2022-11-13T12:05:31.617Z,11.33
2022-11-13T12:08:11.781Z,11.40
2022-11-13T12:10:47.852Z,11.47
2022-11-13T12:13:29.295Z,11.53
2022-11-13T12:16:06.337Z,11.59
2022-11-13T12:18:48.959Z,11.62
2022-11-13T12:21:24.948Z,11.68
2022-11-13T12:24:29.777Z,11.71
2022-11-13T12:27:11.014Z,11.75
2022-11-13T12:30:01.844Z,11.80
2022-11-13T12:32:45.910Z,11.87
2022-11-13T12:35:19.817Z,11.96
2022-11-13T12:38:00.484Z,12.05
2022-11-13T12:40:41.252Z,12.14
2022-11-13T12:43:35.177Z,12.21
2022-11-13T12:46:09.976Z,12.31
2022-11-13T12:48:40.757Z,12.40
2022-11-13T12:51:11.956Z,12.47
2022-11-13T12:53:49.942Z,12.54
2022-11-13T12:56:32.871Z,12.59
2022-11-13T13:02:04.401Z,12.67
2022-11-13T13:04:49.737Z,12.70
2022-11-13T13:07:38.468Z,12.71
2022-11-13T13:10:18.418Z,12.72
2022-11-13T13:12:58.879Z,12.74
2022-11-13T13:15:36.402Z,12.78
2022-11-13T13:18:13.714Z,12.80
2022-11-13T13:20:47.202Z,12.82
2022-11-13T13:23:27.881Z,12.84
2022-11-13T13:26:08.235Z,12.87
2022-11-13T13:28:41.505Z,12.88
2022-11-13T13:31:24.749Z,12.90
2022-11-13T13:34:19.806Z,12.84
2022-11-13T13:36:56.257Z,12.89
2022-11-13T13:39:38.789Z,12.90
2022-11-13T13:42:28.651Z,12.92
2022-11-13T13:45:25.537Z,12.97
2022-11-13T13:47:56.896Z,12.99
2022-11-13T13:50:33.318Z,13.01
2022-11-13T13:53:03.396Z,13.00
2022-11-13T13:55:36.600Z,13.04
2022-11-13T13:58:10.713Z,13.08
2022-11-13T14:00:59.000Z,13.14
2022-11-13T14:03:31.098Z,13.20
2022-11-13T14:06:19.086Z,13.23
2022-11-13T14:08:48.412Z,13.27
2022-11-13T14:11:20.350Z,13.29
2022-11-13T14:13:48.744Z,13.29
2022-11-13T14:16:17.047Z,13.31
2022-11-13T14:18:45.611Z,13.30
2022-11-13T14:21:18.230Z,13.25
2022-11-13T14:23:50.560Z,13.30
2022-11-13T14:26:21.359Z,13.29
2022-11-13T14:28:56.468Z,13.30
2022-11-13T14:31:30.006Z,13.36
2022-11-13T14:34:01.917Z,13.43
2022-11-13T14:36:35.348Z,13.49
2022-11-13T14:39:04.135Z,13.56
2022-11-13T14:41:37.147Z,13.60
2022-11-13T14:44:06.203Z,13.67
2022-11-13T14:46:38.076Z,13.69
2022-11-13T14:49:16.066Z,13.70
2022-11-13T14:51:56.703Z,13.67
2022-11-13T14:54:53.280Z,13.68
2022-11-13T14:57:20.679Z,13.70
2022-11-13T14:59:48.910Z,13.75
2022-11-13T15:02:17.189Z,13.79
2022-11-13T15:04:45.442Z,13.84
2022-11-13T15:07:30.226Z,13.80
2022-11-13T15:09:59.575Z,13.84
2022-11-13T15:12:28.195Z,13.83
2022-11-13T15:14:56.430Z,13.84
2022-11-13T15:17:24.817Z,13.83
2022-11-13T15:19:55.001Z,13.82
2022-11-13T15:22:27.673Z,13.84
2022-11-13T15:24:56.784Z,13.86
2022-11-13T15:27:25.086Z,13.85
2022-11-13T15:29:53.276Z,13.86
2022-11-13T15:32:21.537Z,13.81
2022-11-13T15:34:49.796Z,13.83
2022-11-13T15:37:18.545Z,13.81
2022-11-13T15:39:48.202Z,13.79
2022-11-13T15:42:19.910Z,13.77
2022-11-13T15:44:48.460Z,13.77
2022-11-13T15:47:30.979Z,13.73
2022-11-13T15:50:15.790Z,13.72
2022-11-13T15:52:47.686Z,13.66
2022-11-13T15:55:33.108Z,13.65
2022-11-13T15:58:01.940Z,13.63
2022-11-13T16:00:30.744Z,13.60
2022-11-13T16:02:59.339Z,13.59
2022-11-13T16:05:29.572Z,13.56
2022-11-13T16:07:58.682Z,13.53
2022-11-13T16:10:27.124Z,13.48
2022-11-13T16:12:56.989Z,13.46
2022-11-13T16:15:25.266Z,13.41
2022-11-13T16:17:57.212Z,13.36
2022-11-13T16:20:25.954Z,13.33
2022-11-13T16:22:54.997Z,13.28
2022-11-13T16:25:23.940Z,13.25
2022-11-13T16:27:53.306Z,13.20
2022-11-13T16:30:25.335Z,13.16
2022-11-13T16:32:53.649Z,13.13
2022-11-13T16:35:22.120Z,13.12
2022-11-13T16:37:50.397Z,13.09
2022-11-13T16:40:23.122Z,13.07
2022-11-13T16:42:51.677Z,13.05
2022-11-13T16:45:22.700Z,13.04
2022-11-13T16:47:51.553Z,13.01
2022-11-13T16:50:24.719Z,12.98
2022-11-13T16:52:53.017Z,12.98
2022-11-13T16:55:21.353Z,12.96
2022-11-13T16:57:49.669Z,12.92
2022-11-13T17:00:20.448Z,12.90
2022-11-13T17:02:53.563Z,12.86
2022-11-13T17:05:23.761Z,12.83
2022-11-13T17:07:52.028Z,12.82
2022-11-13T17:10:31.241Z,12.77
2022-11-13T17:13:00.329Z,12.76
2022-11-13T17:15:28.613Z,12.75
2022-11-13T17:17:59.858Z,12.73
2022-11-13T17:20:28.368Z,12.71
2022-11-13T17:22:56.651Z,12.70
2022-11-13T17:25:26.775Z,12.66
2022-11-13T17:27:55.454Z,12.65
2022-11-13T17:30:23.872Z,12.63
2022-11-13T17:32:52.152Z,12.60
2022-11-13T17:35:21.909Z,12.60
2022-11-13T17:37:50.217Z,12.57
2022-11-13T17:40:18.738Z,12.57
2022-11-13T17:42:47.999Z,12.56
2022-11-13T17:45:16.846Z,12.55
2022-11-13T17:47:45.102Z,12.55
2022-11-13T17:50:15.017Z,12.51
2022-11-13T17:52:44.675Z,12.51
2022-11-13T17:55:14.106Z,12.50
2022-11-13T17:57:42.500Z,12.50
2022-11-13T18:00:12.599Z,12.49
2022-11-13T18:02:40.841Z,12.50
2022-11-13T18:05:10.050Z,12.50
2022-11-13T18:07:40.068Z,12.49
2022-11-13T18:10:11.863Z,12.49
2022-11-13T18:12:40.222Z,12.48
2022-11-13T18:15:09.363Z,12.49
2022-11-13T18:17:37.666Z,12.49
2022-11-13T18:20:07.058Z,12.48
2022-11-13T18:22:35.339Z,12.47
2022-11-13T18:25:04.200Z,12.45
2022-11-13T18:27:33.866Z,12.43
2022-11-13T18:30:02.169Z,12.40
2022-11-13T18:32:30.395Z,12.38
2022-11-13T18:34:58.654Z,12.37
2022-11-13T18:37:26.925Z,12.33
2022-11-13T18:39:55.190Z,12.32
2022-11-13T18:42:23.513Z,12.30
2022-11-13T18:44:53.246Z,12.27
2022-11-13T18:47:21.888Z,12.26
2022-11-13T18:49:50.285Z,12.25
2022-11-13T18:52:18.724Z,12.22
2022-11-13T18:54:47.039Z,12.19
2022-11-13T18:57:15.293Z,12.17
2022-11-13T18:59:43.653Z,12.15
2022-11-13T19:02:13.928Z,12.15
2022-11-13T19:04:42.293Z,12.15
2022-11-13T19:07:12.288Z,12.15
2022-11-13T19:09:45.675Z,12.15
2022-11-13T19:12:13.956Z,12.13
2022-11-13T19:14:42.270Z,12.13
2022-11-13T19:17:10.919Z,12.11
2022-11-13T19:19:42.302Z,12.09
2022-11-13T19:22:10.617Z,12.07
2022-11-13T19:24:38.907Z,12.04
2022-11-13T19:27:07.315Z,12.02
2022-11-13T19:29:35.642Z,11.97
2022-11-13T19:32:04.059Z,11.93
2022-11-13T19:34:32.383Z,11.91
2022-11-13T19:37:02.221Z,11.87
2022-11-13T19:39:30.635Z,11.87
2022-11-13T19:41:58.947Z,11.83
2022-11-13T19:44:27.997Z,11.82
2022-11-13T19:46:57.391Z,11.79
2022-11-13T19:49:25.823Z,11.78
2022-11-13T19:51:55.343Z,11.78
2022-11-13T19:54:25.027Z,11.73
2022-11-13T19:56:53.360Z,11.73
2022-11-13T19:59:21.728Z,11.69
2022-11-13T20:01:50.139Z,11.69
2022-11-13T20:04:18.519Z,11.65
2022-11-13T20:06:46.977Z,11.59
2022-11-13T20:09:15.377Z,11.60
2022-11-13T20:11:45.831Z,11.56
2022-11-13T20:14:14.486Z,11.52
2022-11-13T20:16:42.789Z,11.49
2022-11-13T20:19:11.105Z,11.46
2022-11-13T20:21:40.836Z,11.44
2022-11-13T20:24:11.448Z,11.40
2022-11-13T20:26:40.427Z,11.39
2022-11-13T20:29:10.163Z,11.39
2022-11-13T20:31:38.494Z,11.38
2022-11-13T20:34:06.977Z,11.36
2022-11-13T20:36:35.321Z,11.33
2022-11-13T20:39:08.976Z,11.37
2022-11-13T20:41:37.731Z,11.34
2022-11-13T20:44:06.566Z,11.32
2022-11-13T20:46:36.504Z,11.30
2022-11-13T20:49:06.286Z,11.30
2022-11-13T20:51:34.697Z,11.28
2022-11-13T20:54:03.004Z,11.26
2022-11-13T20:56:31.432Z,11.24
2022-11-13T20:58:59.967Z,11.23
2022-11-13T21:01:28.299Z,11.22
2022-11-13T21:03:59.593Z,11.23
2022-11-13T21:06:28.019Z,11.23
2022-11-13T21:08:58.052Z,11.25
2022-11-13T21:11:26.952Z,11.27
2022-11-13T21:13:57.526Z,11.27
2022-11-13T21:16:28.101Z,11.21
2022-11-13T21:19:00.164Z,11.27
2022-11-13T21:21:29.211Z,11.24
2022-11-13T21:23:58.895Z,11.28
2022-11-13T21:26:28.382Z,11.31
2022-11-13T21:28:57.306Z,11.33
2022-11-13T21:31:25.836Z,11.37
2022-11-13T21:33:55.058Z,11.37
2022-11-13T21:36:27.346Z,11.34
2022-11-13T21:38:57.051Z,11.35
2022-11-13T21:41:26.480Z,11.37
2022-11-13T21:43:59.358Z,11.38
2022-11-13T21:46:30.254Z,11.36
2022-11-13T21:49:00.879Z,11.36
2022-11-13T21:51:31.195Z,11.36
2022-11-13T21:53:59.833Z,11.37
2022-11-13T21:56:29.879Z,11.37
2022-11-13T21:58:58.754Z,11.39
2022-11-13T22:01:29.031Z,11.38
2022-11-13T22:03:58.675Z,11.39
2022-11-13T22:06:31.141Z,11.41
2022-11-13T22:09:02.124Z,11.40
2022-11-13T22:11:33.704Z,11.41
2022-11-13T22:14:02.571Z,11.42
2022-11-13T22:16:33.278Z,11.40
2022-11-13T22:19:03.720Z,11.34
2022-11-13T22:21:33.774Z,11.37
2022-11-13T22:24:02.580Z,11.41
2022-11-13T22:26:32.043Z,11.41
2022-11-13T22:29:01.544Z,11.39
2022-11-13T22:31:31.668Z,11.41
2022-11-13T22:34:00.131Z,11.42
2022-11-13T22:36:31.089Z,11.43
2022-11-13T22:39:00.996Z,11.43
2022-11-13T22:41:31.844Z,11.45
2022-11-13T22:44:02.877Z,11.46
2022-11-13T22:46:33.509Z,11.48
2022-11-13T22:49:03.660Z,11.50
2022-11-13T22:51:37.910Z,11.51
2022-11-13T22:54:09.952Z,11.47
2022-11-13T22:56:40.157Z,11.47
2022-11-13T22:59:12.194Z,11.47
2022-11-13T23:01:43.648Z,11.48
2022-11-13T23:04:14.623Z,11.47
2022-11-13T23:06:43.265Z,11.47
2022-11-13T23:09:13.015Z,11.46
2022-11-13T23:11:42.416Z,11.48
2022-11-13T23:14:15.776Z,11.50
2022-11-13T23:16:44.289Z,11.48
2022-11-13T23:19:12.705Z,11.49
2022-11-13T23:21:40.944Z,11.47
2022-11-13T23:24:13.021Z,11.46
2022-11-13T23:26:41.257Z,11.46
2022-11-13T23:29:09.533Z,11.47
2022-11-13T23:31:37.812Z,11.46
2022-11-13T23:34:06.527Z,11.44
2022-11-13T23:36:34.830Z,11.40
2022-11-13T23:39:03.192Z,11.41
2022-11-13T23:41:32.817Z,11.41
2022-11-13T23:44:09.814Z,11.39
2022-11-13T23:46:38.206Z,11.36
2022-11-13T23:49:06.468Z,11.34
2022-11-13T23:51:34.756Z,11.35
2022-11-13T23:54:03.204Z,11.32
2022-11-13T23:56:32.804Z,11.35
2022-11-13T23:59:01.034Z,11.33
